Time;durP1;ratioP1;P1;durP2;ratioP2;P2;SDS_P1;SDS_P2;PMS_P1;PMS_P2;Temp;Humidity;BMP_temperature;BMP_pressure;BME280_temperature;BME280_humidity;BME280_pressure;Samples;Min_cycle;Max_cycle;Signal;HPM_P1;HPM_P2
2023/04/26 00:00:22;;;;;;;6.82;2.45;;;;;;;;;;4946637;29;20090;-69
2023/04/26 00:02:48;;;;;;;3.03;2.28;;;;;;;;;;4948230;29;20460;-69
2023/04/26 00:05:15;;;;;;;5.47;2.05;;;;;;;;;;4946504;29;20078;-69
2023/04/26 00:07:41;;;;;;;9.20;3.88;;;;;;;;;;4947774;29;20092;-69
2023/04/26 00:10:09;;;;;;;4.45;1.98;;;;;;;;;;4924994;29;20131;-69
2023/04/26 00:12:35;;;;;;;5.50;2.33;;;;;;;;;;4943563;29;20062;-69
2023/04/26 00:15:01;;;;;;;7.35;2.60;;;;;;;;;;4940505;29;20074;-69
2023/04/26 00:17:27;;;;;;;7.85;3.13;;;;;;;;;;4949409;28;20043;-69
2023/04/26 00:19:56;;;;;;;7.00;2.22;;;;;;;;;;4931113;29;20051;-69
2023/04/26 00:22:23;;;;;;;11.38;2.97;;;;;;;;;;4950118;28;20047;-69
2023/04/26 00:24:49;;;;;;;4.68;2.33;;;;;;;;;;4947243;28;20043;-69
2023/04/26 00:27:15;;;;;;;6.88;2.78;;;;;;;;;;4947318;29;20039;-69
2023/04/26 00:29:41;;;;;;;7.97;2.42;;;;;;;;;;4943765;29;20051;-69
2023/04/26 00:32:07;;;;;;;6.70;2.97;;;;;;;;;;4944905;28;20046;-69
2023/04/26 00:34:34;;;;;;;8.52;3.03;;;;;;;;;;4944078;29;20054;-69
2023/04/26 00:37:00;;;;;;;4.97;2.67;;;;;;;;;;4944614;28;20498;-69
2023/04/26 00:39:26;;;;;;;9.75;2.83;;;;;;;;;;4939346;29;20047;-70
2023/04/26 00:41:52;;;;;;;8.80;2.70;;;;;;;;;;4942050;29;20054;-70
2023/04/26 00:44:18;;;;;;;5.60;2.70;;;;;;;;;;4946637;29;20051;-69
2023/04/26 00:46:44;;;;;;;6.43;3.10;;;;;;;;;;4947060;28;20047;-69
2023/04/26 00:49:13;;;;;;;3.72;2.60;;;;;;;;;;4945485;28;20050;-69
2023/04/26 00:51:39;;;;;;;8.43;3.30;;;;;;;;;;4944025;28;20068;-69
2023/04/26 00:54:05;;;;;;;6.32;2.35;;;3.60;99.90;;;;;;4948941;28;20126;-69
2023/04/26 00:56:32;;;;;;;6.10;2.33;;;;;;;;;;4941464;28;20183;-70
2023/04/26 00:58:58;;;;;;;6.80;2.60;;;;;;;;;;4947183;28;20031;-69
2023/04/26 01:01:24;;;;;;;5.38;2.65;;;;;;;;;;4929827;29;20405;-69
2023/04/26 01:03:50;;;;;;;6.07;2.28;;;;;;;;;;4938689;29;20106;-69
2023/04/26 01:06:16;;;;;;;6.32;1.88;;;;;;;;;;4926961;29;20557;-70
2023/04/26 01:08:42;;;;;;;9.10;2.08;;;;;;;;;;4941981;29;20054;-70
2023/04/26 01:11:08;;;;;;;6.00;3.13;;;;;;;;;;4943716;28;20078;-71
2023/04/26 01:13:35;;;;;;;11.20;2.78;;;;;;;;;;4947325;29;20043;-69
2023/04/26 01:16:02;;;;;;;3.72;2.30;;;;;;;;;;4947029;28;20047;-69
2023/04/26 01:18:28;;;;;;;8.27;3.55;;;;;;;;;;4944999;28;20394;-70
2023/04/26 01:20:55;;;;;;;5.97;2.83;;;;;;;;;;4942823;28;20043;-69
2023/04/26 01:23:21;;;;;;;4.38;2.05;;;;;;;;;;4945017;28;20051;-70
2023/04/26 01:25:47;;;;;;;10.75;3.15;;;;;;;;;;4940384;29;20062;-70
2023/04/26 01:28:13;;;;;;;3.72;1.75;;;;;;;;;;4947579;28;20043;-69
2023/04/26 01:30:39;;;;;;;7.63;2.00;;;;;;;;;;4949572;28;20390;-69
2023/04/26 01:33:06;;;;;;;9.25;2.65;;;;;;;;;;4936813;29;20043;-69
2023/04/26 01:35:32;;;;;;;6.07;2.92;;;3.70;99.90;;;;;;4947019;29;20051;-70
2023/04/26 01:37:58;;;;;;;8.20;2.65;;;;;;;;;;4947242;28;20048;-69
2023/04/26 01:40:24;;;;;;;3.45;2.50;;;;;;;;;;4947713;28;20053;-70
2023/04/26 01:42:50;;;;;;;4.72;2.60;;;;;;;;;;4946093;28;20040;-70
2023/04/26 01:45:16;;;;;;;8.50;2.20;;;;;;;;;;4949544;28;20047;-70
2023/04/26 01:47:42;;;;;;;8.20;2.60;;;4.00;99.90;;;;;;4946757;28;20058;-70
2023/04/26 01:50:08;;;;;;;6.60;3.30;;;;;;;;;;4943906;28;20043;-70
2023/04/26 01:52:35;;;;;;;4.80;2.20;;;;;;;;;;4941778;29;20414;-69
2023/04/26 01:55:01;;;;;;;9.52;2.70;;;;;;;;;;4948654;28;20047;-70
2023/04/26 01:57:27;;;;;;;4.13;2.45;;;;;;;;;;4944017;28;20058;-69
2023/04/26 01:59:54;;;;;;;5.93;2.40;;;;;;;;;;4949147;28;20051;-70
2023/04/26 02:02:21;;;;;;;7.57;2.90;;;;;;;;;;4944020;28;20054;-70
2023/04/26 02:04:47;;;;;;;4.57;3.03;;;;;;;;;;4947606;28;20076;-70
2023/04/26 02:07:12;;;;;;;6.28;2.38;;;4.00;99.90;;;;;;4946127;28;20051;-70
2023/04/26 02:09:38;;;;;;;3.75;2.13;;;;;;;;;;4947349;29;20079;-70
2023/04/26 02:12:04;;;;;;;4.97;2.70;;;;;;;;;;4946127;28;20055;-68
2023/04/26 02:14:30;;;;;;;4.32;2.65;;;;;;;;;;4947163;28;20054;-69
2023/04/26 02:16:56;;;;;;;6.80;3.00;;;;;;;;;;4943154;28;20383;-69
2023/04/26 02:19:22;;;;;;;5.70;2.67;;;4.20;99.90;;;;;;4947433;28;20114;-70
2023/04/26 02:21:54;;;;;;;6.68;2.60;;;;;;;;;;4942306;28;20115;-70
2023/04/26 02:24:22;;;;;;;7.65;2.92;;;;;;;;;;4934555;29;20129;-70
2023/04/26 02:26:47;;;;;;;5.38;2.60;;;3.90;99.90;;;;;;4946147;28;20053;-70
2023/04/26 02:29:14;;;;;;;6.03;2.50;;;;;;;;;;4945164;28;20421;-69
2023/04/26 02:31:40;;;;;;;6.47;2.83;;;;;;;;;;4948381;28;20057;-70
2023/04/26 02:34:06;;;;;;;4.25;2.70;;;;;;;;;;4947787;28;20142;-69
2023/04/26 02:36:32;;;;;;;5.88;3.38;;;;;;;;;;4946345;28;20122;-69
2023/04/26 02:38:58;;;;;;;7.97;2.85;;;;;;;;;;4945220;29;20044;-69
2023/04/26 02:41:24;;;;;;;6.95;2.17;;;;;;;;;;4941787;28;20067;-69
2023/04/26 02:43:51;;;;;;;3.50;2.15;;;;;;;;;;4945077;28;20086;-69
2023/04/26 02:46:17;;;;;;;8.52;3.00;;;;;;;;;;4947683;28;20042;-69
2023/04/26 02:48:42;;;;;;;3.90;2.58;;;3.40;99.90;;;;;;4945382;28;20051;-69
2023/04/26 02:51:08;;;;;;;4.03;2.35;;;3.30;99.90;;;;;;4947794;28;20382;-70
2023/04/26 02:53:34;;;;;;;5.72;2.80;;;;;;;;;;4933496;28;20043;-69
2023/04/26 02:56:00;;;;;;;3.60;2.80;;;;;;;;;;4944102;28;20054;-69
2023/04/26 02:58:26;;;;;;;6.22;2.85;;;;;;;;;;4948499;28;20125;-70
2023/04/26 03:00:53;;;;;;;6.75;2.63;;;;;;;;;;4951571;28;20050;-69
2023/04/26 03:03:19;;;;;;;6.63;2.78;;;;;;;;;;4947985;28;20050;-70
2023/04/26 03:05:45;;;;;;;11.05;2.72;;;;;;;;;;4929851;29;20413;-70
2023/04/26 03:08:11;;;;;;;4.25;2.25;;;;;;;;;;4934759;29;20047;-69
2023/04/26 03:10:37;;;;;;;6.05;2.00;;;;;;;;;;4950256;28;20553;-69
2023/04/26 03:13:04;;;;;;;7.72;2.20;;;3.20;99.90;;;;;;4949320;28;20114;-69
2023/04/26 03:15:30;;;;;;;4.60;1.90;;;;;;;;;;4940060;28;20043;-70
2023/04/26 03:17:56;;;;;;;4.70;2.65;;;;;;;;;;4934350;29;20179;-69
2023/04/26 03:20:23;;;;;;;9.65;4.13;;;;;;;;;;4947275;28;20166;-70
2023/04/26 03:22:49;;;;;;;7.00;2.67;;;;;;;;;;4947453;28;20079;-70
2023/04/26 03:25:15;;;;;;;6.75;2.33;;;;;;;;;;4947066;28;20462;-70
2023/04/26 03:27:42;;;;;;;4.40;2.40;;;;;;;;;;4942926;28;20593;-69
2023/04/26 03:30:08;;;;;;;6.13;2.60;;;;;;;;;;4942665;28;20047;-69
2023/04/26 03:32:34;;;;;;;6.78;2.95;;;;;;;;;;4949181;28;20047;-70
2023/04/26 03:35:00;;;;;;;8.73;2.78;;;;;;;;;;4947352;28;20054;-69
2023/04/26 03:37:26;;;;;;;4.50;2.60;;;;;;;;;;4949429;29;20070;-69
2023/04/26 03:39:52;;;;;;;5.53;2.47;;;;;;;;;;4947602;28;20051;-69
2023/04/26 03:42:19;;;;;;;4.05;2.88;;;2.90;99.90;;;;;;4949367;29;20047;-70
2023/04/26 03:44:45;;;;;;;10.05;3.60;;;;;;;;;;4939493;28;20088;-69
2023/04/26 03:47:14;;;;;;;8.00;2.83;;;;;;;;;;4949008;28;20493;-69
2023/04/26 03:49:40;;;;;;;8.65;2.58;;;;;;;;;;4948241;28;20066;-70
2023/04/26 03:52:06;;;;;;;7.32;2.50;;;;;;;;;;4946168;28;20118;-70
2023/04/26 03:54:32;;;;;;;2.85;2.05;;;;;;;;;;4947137;28;20529;-69
2023/04/26 03:56:58;;;;;;;4.55;2.55;;;;;;;;;;4951850;28;20097;-70
2023/04/26 03:59:24;;;;;;;6.65;2.83;;;;;;;;;;4941346;28;20452;-69
2023/04/26 04:01:51;;;;;;;4.95;2.47;;;;;;;;;;4938868;28;20058;-69
2023/04/26 04:04:16;;;;;;;5.15;3.35;;;;;;;;;;4948936;29;20565;-68
2023/04/26 04:06:42;;;;;;;10.55;2.90;;;;;;;;;;4946977;28;20062;-69
2023/04/26 04:09:08;;;;;;;5.63;2.38;;;;;;;;;;4944623;28;20047;-69
2023/04/26 04:11:34;;;;;;;7.35;2.92;;;;;;;;;;4945180;29;20063;-69
2023/04/26 04:14:01;;;;;;;9.15;2.75;;;;;;;;;;4945124;28;20043;-69
2023/04/26 04:16:27;;;;;;;6.95;3.10;;;;;;;;;;4941708;29;20086;-69
2023/04/26 04:18:53;;;;;;;9.57;2.40;;;;;;;;;;4949727;28;20043;-69
2023/04/26 04:21:19;;;;;;;5.28;2.88;;;;;;;;;;4952803;28;20058;-70
2023/04/26 04:23:46;;;;;;;7.72;2.92;;;;;;;;;;4945769;28;20058;-70
2023/04/26 04:26:12;;;;;;;4.93;2.90;;;;;;;;;;4949857;28;20065;-69
2023/04/26 04:28:40;;;;;;;15.75;4.03;;;;;;;;;;4944525;28;20051;-69
2023/04/26 04:31:08;;;;;;;7.70;2.78;;;;;;;;;;4944211;28;20762;-69
2023/04/26 04:33:34;;;;;;;5.53;2.65;;;;;;;;;;4954263;28;20054;-69
2023/04/26 04:36:00;;;;;;;5.38;2.40;;;;;;;;;;4949465;28;20086;-69
2023/04/26 04:38:26;;;;;;;4.15;2.40;;;;;;;;;;4953652;28;20070;-69
2023/04/26 04:40:52;;;;;;;4.28;2.30;;;;;;;;;;4947786;28;20097;-69
2023/04/26 04:43:18;;;;;;;3.50;2.00;;;;;;;;;;4943899;28;20039;-67
2023/04/26 04:45:45;;;;;;;5.95;2.65;;;;;;;;;;4943024;28;20048;-69
2023/04/26 04:48:11;;;;;;;4.28;2.13;;;;;;;;;;4950257;28;20039;-68
2023/04/26 04:50:38;;;;;;;8.57;3.00;;;;;;;;;;4943249;28;20138;-68
2023/04/26 04:53:04;;;;;;;3.08;2.20;;;;;;;;;;4946113;28;20042;-67
2023/04/26 04:55:30;;;;;;;8.93;2.35;;;;;;;;;;4936246;28;20043;-68
2023/04/26 04:57:56;;;;;;;5.93;3.78;;;;;;;;;;4940384;28;20039;-69
2023/04/26 05:00:22;;;;;;;8.75;2.92;;;;;;;;;;4937117;29;20067;-69
2023/04/26 05:02:48;;;;;;;7.22;3.08;;;;;;;;;;4945134;29;20409;-68
2023/04/26 05:05:14;;;;;;;8.57;2.60;;;;;;;;;;4942771;29;20047;-70
2023/04/26 05:07:40;;;;;;;10.43;3.38;;;;;;;;;;4937966;28;20138;-68
2023/04/26 05:10:07;;;;;;;7.43;2.92;;;;;;;;;;4944907;29;20047;-68
2023/04/26 05:12:34;;;;;;;5.35;3.08;;;;;;;;;;4946623;28;20082;-68
2023/04/26 05:15:00;;;;;;;8.85;3.28;;;;;;;;;;4941180;28;20055;-67
2023/04/26 05:17:26;;;;;;;7.35;2.97;;;;;;;;;;4943567;28;20079;-67
2023/04/26 05:19:52;;;;;;;4.68;2.40;;;;;;;;;;4943228;28;20043;-69
2023/04/26 05:22:20;;;;;;;4.28;2.90;;;;;;;;;;4935903;28;20043;-68
2023/04/26 05:24:46;;;;;;;4.30;2.72;;;;;;;;;;4949567;28;20126;-68
2023/04/26 05:27:12;;;;;;;9.60;3.50;;;;;;;;;;4943576;28;20046;-70
2023/04/26 05:29:38;;;;;;;8.50;3.35;;;;;;;;;;4941468;28;20045;-68
2023/04/26 05:32:04;;;;;;;8.75;3.45;;;;;;;;;;4944722;28;20047;-67
2023/04/26 05:34:30;;;;;;;7.75;3.20;;;;;;;;;;4944116;28;20377;-67
2023/04/26 05:36:56;;;;;;;4.55;3.13;;;;;;;;;;4925919;29;20047;-68
2023/04/26 05:39:22;;;;;;;9.18;4.38;;;;;;;;;;4944974;28;20048;-68
2023/04/26 05:41:48;;;;;;;4.95;3.00;;;;;;;;;;4942662;28;20054;-68
2023/04/26 05:44:15;;;;;;;5.93;2.97;;;;;;;;;;4937756;28;20039;-68
2023/04/26 05:46:41;;;;;;;5.53;3.33;;;;;;;;;;4949439;28;20050;-70
2023/04/26 05:49:07;;;;;;;9.23;3.45;;;;;;;;;;4942402;29;20051;-70
2023/04/26 05:51:33;;;;;;;8.48;3.80;;;;;;;;;;4943974;28;20556;-70
2023/04/26 05:53:59;;;;;;;7.45;3.10;;;;;;;;;;4944594;28;20780;-69
2023/04/26 05:56:25;;;;;;;8.57;3.53;;;;;;;;;;4934920;29;20063;-69
2023/04/26 05:58:52;;;;;;;9.27;3.05;;;;;;;;;;4945307;28;20050;-69
2023/04/26 06:01:18;;;;;;;6.13;3.45;;;;;;;;;;4941622;29;20469;-70
2023/04/26 06:03:44;;;;;;;6.07;3.00;;;;;;;;;;4939352;29;20496;-69
2023/04/26 06:06:11;;;;;;;5.07;3.20;;;;;;;;;;4945740;28;20053;-70
2023/04/26 06:08:37;;;;;;;4.35;2.88;;;;;;;;;;4938548;28;20058;-72
2023/04/26 06:11:03;;;;;;;4.45;2.72;;;;;;;;;;4941526;28;20456;-72
2023/04/26 06:13:30;;;;;;;6.07;2.63;;;;;;;;;;4945330;28;20607;-72
2023/04/26 06:15:56;;;;;;;5.65;2.95;;;;;;;;;;4946673;28;20560;-72
2023/04/26 06:18:22;;;;;;;4.28;2.20;;;;;;;;;;4942484;28;20779;-73
2023/04/26 06:20:48;;;;;;;5.70;2.60;;;;;;;;;;4943715;28;20042;-73
2023/04/26 06:23:13;;;;;;;5.50;2.20;;;12.00;99.90;;;;;;4942751;28;20035;-73
2023/04/26 06:25:43;;;;;;;3.47;2.30;;;;;;;;;;4946012;28;20074;-73
2023/04/26 06:28:09;;;;;;;3.45;2.00;;;;;;;;;;4946055;28;20118;-73
2023/04/26 06:30:35;;;;;;;5.57;2.15;;;;;;;;;;4937399;28;20039;-73
2023/04/26 06:33:01;;;;;;;7.82;1.70;;;14.50;99.90;;;;;;4948276;28;20047;-73
2023/04/26 06:35:27;;;;;;;6.72;2.00;;;14.60;99.90;;;;;;4951573;28;20129;-73
2023/04/26 06:37:52;;;;;;;2.80;1.60;;;15.10;99.90;;;;;;4948795;28;20046;-74
2023/04/26 06:40:18;;;;;;;5.20;1.75;;;15.50;99.90;;;;;;4948361;28;20047;-73
2023/04/26 06:42:44;;;;;;;3.13;1.40;;;15.70;99.90;;;;;;4944290;28;20489;-73
2023/04/26 06:45:10;;;;;;;4.80;1.30;;;15.10;99.90;;;;;;4942624;28;20055;-75
2023/04/26 06:47:36;;;;;;;5.85;1.60;;;14.80;99.90;;;;;;4948704;28;20058;-76
2023/04/26 06:50:03;;;;;;;4.97;1.70;;;14.80;99.90;;;;;;4935860;28;20501;-74
2023/04/26 06:52:29;;;;;;;4.82;1.33;;;14.80;99.90;;;;;;4929896;29;20062;-73
2023/04/26 06:54:55;;;;;;;6.88;1.95;;;14.70;99.90;;;;;;4944487;28;20046;-70
2023/04/26 06:57:20;;;;;;;3.40;1.40;;;15.10;99.90;;;;;;4943958;29;20090;-71
2023/04/26 06:59:46;;;;;;;4.95;1.50;;;15.10;99.90;;;;;;4951379;28;20413;-72
2023/04/26 07:02:12;;;;;;;4.85;1.45;;;15.60;99.90;;;;;;4951590;28;20042;-74
2023/04/26 07:04:37;;;;;;;7.88;1.55;;;17.90;99.90;;;;;;4936442;28;20138;-71
2023/04/26 07:07:03;;;;;;;3.88;1.20;;;15.50;99.90;;;;;;4948899;29;20456;-70
2023/04/26 07:09:28;;;;;;;4.50;1.10;;;14.80;99.90;;;;;;4945263;28;20532;-72
2023/04/26 07:11:54;;;;;;;5.20;1.00;;;;;;;;;;4945772;28;20047;-74
2023/04/26 07:14:20;;;;;;;6.25;1.40;;;13.50;99.90;;;;;;4947419;28;20051;-74
2023/04/26 07:16:46;;;;;;;4.30;1.90;;;;;;;;;;4940018;28;20506;-74
2023/04/26 07:19:12;;;;;;;5.60;1.02;;;;;;;;;;4940966;28;20060;-74
2023/04/26 07:21:37;;;;;;;6.22;1.40;;;12.40;99.90;;;;;;4950966;28;20066;-73
2023/04/26 07:24:03;;;;;;;5.30;1.73;;;11.90;99.90;;;;;;4949245;28;20506;-73
2023/04/26 07:26:30;;;;;;;7.75;1.55;;;;;;;;;;4951233;28;20101;-71
2023/04/26 07:28:56;;;;;;;5.57;1.65;;;;;;;;;;4946910;28;20470;-72
2023/04/26 07:31:22;;;;;;;6.68;1.63;;;;;;;;;;4951149;28;20046;-72
2023/04/26 07:33:48;;;;;;;7.53;1.60;;;;;;;;;;4952352;28;20417;-72
2023/04/26 07:36:14;;;;;;;5.47;1.55;;;;;;;;;;4946120;28;20049;-72
2023/04/26 07:38:40;;;;;;;6.22;1.90;;;10.90;99.90;;;;;;4942396;28;20043;-71
2023/04/26 07:41:06;;;;;;;5.18;1.50;;;;;;;;;;4942512;28;20039;-72
2023/04/26 07:43:32;;;;;;;4.75;1.48;;;;;;;;;;4941368;28;20706;-71
2023/04/26 07:46:01;;;;;;;3.72;1.40;;;;;;;;;;4943728;28;20052;-72
2023/04/26 07:48:27;;;;;;;5.47;1.55;;;;;;;;;;4945776;28;20062;-71
2023/04/26 07:50:54;;;;;;;3.22;1.45;;;;;;;;;;4941758;29;20102;-71
2023/04/26 07:53:20;;;;;;;5.43;1.65;;;;;;;;;;4951766;28;20055;-71
2023/04/26 07:55:46;;;;;;;9.18;1.75;;;;;;;;;;4940118;28;20051;-71
2023/04/26 07:58:13;;;;;;;5.90;1.80;;;;;;;;;;4940792;28;20094;-72
2023/04/26 08:00:39;;;;;;;7.38;1.92;;;;;;;;;;4947658;28;20127;-71
2023/04/26 08:03:06;;;;;;;2.55;1.42;;;;;;;;;;4942349;28;20040;-70
2023/04/26 08:05:32;;;;;;;9.60;1.95;;;;;;;;;;4947635;28;20561;-73
2023/04/26 08:08:00;;;;;;;5.85;1.80;;;;;;;;;;4944845;28;20121;-73
2023/04/26 08:10:26;;;;;;;4.13;1.58;;;;;;;;;;4941419;28;20050;-70
2023/04/26 08:12:53;;;;;;;5.28;1.58;;;;;;;;;;4939910;28;20056;-76
2023/04/26 08:15:19;;;;;;;7.75;1.80;;;;;;;;;;4941193;28;20095;-72
2023/04/26 08:17:45;;;;;;;5.60;1.42;;;;;;;;;;4951403;28;20054;-73
2023/04/26 08:20:12;;;;;;;8.05;1.90;;;;;;;;;;4947763;28;20121;-74
2023/04/26 08:22:38;;;;;;;2.35;1.50;;;;;;;;;;4928115;28;20043;-70
2023/04/26 08:25:04;;;;;;;6.43;1.55;;;9.50;99.90;;;;;;4949833;28;20541;-69
2023/04/26 08:27:30;;;;;;;6.75;1.60;;;;;;;;;;4949677;28;20043;-72
2023/04/26 08:29:56;;;;;;;6.65;1.83;;;;;;;;;;4948223;28;20102;-73
2023/04/26 08:32:22;;;;;;;6.65;1.67;;;;;;;;;;4946773;28;20155;-72
2023/04/26 08:34:48;;;;;;;3.80;1.55;;;;;;;;;;4941584;28;20749;-72
2023/04/26 08:37:14;;;;;;;9.02;1.90;;;;;;;;;;4942742;28;20051;-72
2023/04/26 08:39:40;;;;;;;5.55;1.50;;;10.10;99.90;;;;;;4945386;28;20047;-72
2023/04/26 08:42:13;;;;;;;8.40;1.80;;;;;;;;;;4940355;28;20043;-72
2023/04/26 08:44:41;;;;;;;3.75;1.25;;;;;;;;;;4952616;28;20032;-73
2023/04/26 08:47:12;;;;;;;6.63;1.55;;;;;;;;;;4933029;28;20099;-72
2023/04/26 08:49:51;;;;;;;3.53;1.73;;;10.60;99.90;;;;;;4963401;28;20480;-73
2023/04/26 08:52:22;;;;;;;5.72;1.80;;;;;;;;;;4948199;28;20134;-73
2023/04/26 08:54:48;;;;;;;4.18;1.80;;;;;;;;;;4950301;28;20091;-73
2023/04/26 08:57:15;;;;;;;6.60;2.10;;;;;;;;;;4945036;28;20047;-70
2023/04/26 08:59:43;;;;;;;3.05;1.42;;;;;;;;;;4947381;29;20047;-70
2023/04/26 09:02:09;;;;;;;4.38;1.73;;;;;;;;;;4947080;28;20126;-70
2023/04/26 09:04:36;;;;;;;3.83;1.35;;;;;;;;;;4946028;28;20040;-69
2023/04/26 09:07:03;;;;;;;7.47;1.85;;;;;;;;;;4945367;28;20050;-70
2023/04/26 09:09:40;;;;;;;4.38;1.73;;;11.10;99.90;;;;;;4947978;28;20047;-70
2023/04/26 09:12:06;;;;;;;3.60;1.70;;;;;;;;;;4941817;28;20508;-70
2023/04/26 09:14:32;;;;;;;6.68;1.70;;;;;;;;;;4945181;28;20062;-70
2023/04/26 09:16:58;;;;;;;4.22;2.08;;;11.40;99.90;;;;;;4945547;28;20126;-70
2023/04/26 09:19:37;;;;;;;7.38;2.63;;;;;;;;;;4948216;28;20182;-70
2023/04/26 09:22:03;;;;;;;4.28;1.80;;;;;;;;;;4942489;28;20080;-70
2023/04/26 09:24:52;;;;;;;5.30;1.88;;;11.30;99.90;;;;;;4946535;28;20043;-70
2023/04/26 09:27:18;;;;;;;4.88;2.00;;;;;;;;;;4947443;28;20403;-69
2023/04/26 09:29:58;;;;;;;4.53;1.77;;;;;;;;;;4938220;28;20070;-70
2023/04/26 09:32:25;;;;;;;4.63;2.00;;;;;;;;;;4947481;28;20085;-68
2023/04/26 09:34:51;;;;;;;2.25;1.48;;;;;;;;;;4942914;28;20130;-69
2023/04/26 09:37:17;;;;;;;5.60;2.10;;;;;;;;;;4947045;28;20043;-69
2023/04/26 09:39:42;;;;;;;6.55;2.08;;;10.00;99.90;;;;;;4948234;28;20054;-69
2023/04/26 09:42:10;;;;;;;8.32;1.92;;;;;;;;;;4950169;28;20031;-69
2023/04/26 09:44:36;;;;;;;4.32;1.98;;;;;;;;;;4949123;28;20054;-69
2023/04/26 09:47:10;;;;;;;3.58;2.20;;;9.30;99.90;;;;;;4945113;28;20188;-71
2023/04/26 09:49:43;;;;;;;7.90;2.38;;;9.30;99.90;;;;;;4932700;28;20071;-72
2023/04/26 09:52:10;;;;;;;7.63;2.30;;;;;;;;;;4955624;28;20062;-71
2023/04/26 09:54:50;;;;;;;7.35;2.30;;;;;;;;;;4940406;28;20098;-74
2023/04/26 09:57:17;;;;;;;6.82;1.73;;;;;;;;;;4926905;29;20133;-71
2023/04/26 09:59:44;;;;;;;6.20;2.28;;;;;;;;;;4945010;28;20047;-71
2023/04/26 10:02:21;;;;;;;4.05;2.00;;;;;;;;;;4946505;28;20047;-71
2023/04/26 10:04:51;;;;;;;3.65;2.80;;;;;;;;;;4956981;28;20055;-71
2023/04/26 10:07:18;;;;;;;7.60;2.38;;;;;;;;;;4941824;28;20817;-71
2023/04/26 10:09:45;;;;;;;4.18;2.00;;;;;;;;;;4946463;28;20051;-70
2023/04/26 10:12:12;;;;;;;5.50;2.05;;;9.60;99.90;;;;;;4944518;28;20470;-70
2023/04/26 10:14:38;;;;;;;9.48;2.25;;;;;;;;;;4946016;28;20462;-71
2023/04/26 10:17:05;;;;;;;9.93;2.13;;;;;;;;;;4945837;28;20158;-71
2023/04/26 10:19:32;;;;;;;7.30;1.90;;;;;;;;;;4929921;29;20068;-71
2023/04/26 10:22:04;;;;;;;5.65;1.88;;;10.20;99.90;;;;;;4925926;29;20043;-72
2023/04/26 10:24:30;;;;;;;6.05;2.33;;;10.20;99.90;;;;;;4943473;28;20117;-72
2023/04/26 10:26:56;;;;;;;4.28;1.95;;;;;;;;;;4941609;28;20047;-72
2023/04/26 10:29:23;;;;;;;5.90;2.08;;;;;;;;;;4940865;28;20134;-71
2023/04/26 10:32:01;;;;;;;3.17;1.88;;;10.30;99.90;;;;;;4939218;28;20050;-70
2023/04/26 10:34:27;;;;;;;3.85;2.17;;;;;;;;;;4946334;28;20097;-71
2023/04/26 10:37:13;;;;;;;7.22;2.03;;;10.40;99.90;;;;;;4946436;28;20079;-71
2023/04/26 10:39:40;;;;;;;9.18;2.22;;;;;;;;;;4942390;28;20054;-70
2023/04/26 10:42:22;;;;;;;6.78;2.55;;;;;;;;;;4941238;28;20043;-69
2023/04/26 10:44:49;;;;;;;7.30;2.53;;;;;;;;;;4939016;28;20046;-71
2023/04/26 10:47:30;;;;;;;7.25;1.98;;;;;;;;;;4953557;28;20410;-71
2023/04/26 10:50:07;;;;;;;5.47;1.75;;;11.10;99.90;;;;;;4947786;28;20038;-69
2023/04/26 10:52:34;;;;;;;5.15;1.77;;;11.20;99.90;;;;;;4950369;28;20079;-71
2023/04/26 10:55:01;;;;;;;7.13;1.90;;;;;;;;;;4941058;28;20078;-70
2023/04/26 10:57:46;;;;;;;7.35;2.58;;;;;;;;;;4943807;28;20047;-70
2023/04/26 11:00:38;;;;;;;6.00;1.85;;;;;;;;;;4945945;28;20059;-70
2023/04/26 11:03:05;;;;;;;5.28;1.90;;;11.60;99.90;;;;;;4943908;28;20078;-71
2023/04/26 11:05:37;;;;;;;7.65;2.30;;;;;;;;;;4946051;28;20536;-71
2023/04/26 11:08:04;;;;;;;6.22;2.28;;;;;;;;;;4949466;28;20058;-70
2023/04/26 11:10:30;;;;;;;6.22;1.85;;;11.90;99.90;;;;;;4948293;28;20434;-69
2023/04/26 11:13:01;;;;;;;6.45;1.92;;;11.50;99.90;;;;;;4945881;28;20058;-71
2023/04/26 11:15:28;;;;;;;4.97;2.00;;;;;;;;;;4951672;28;20043;-71
2023/04/26 11:17:54;;;;;;;5.35;2.50;;;;;;;;;;4950050;28;20493;-71
2023/04/26 11:20:20;;;;;;;5.97;2.00;;;11.20;99.90;;;;;;4949356;28;20054;-71
2023/04/26 11:22:46;;;;;;;6.95;2.30;;;;;;;;;;4946818;28;20051;-71
2023/04/26 11:25:12;;;;;;;4.65;2.08;;;;;;;;;;4944043;28;20174;-69
2023/04/26 11:27:38;;;;;;;5.93;2.10;;;;;;;;;;4951993;28;20055;-70
2023/04/26 11:30:04;;;;;;;8.15;2.22;;;;;;;;;;4949081;28;20057;-71
2023/04/26 11:32:30;;;;;;;6.95;2.08;;;;;;;;;;4946141;28;20043;-69
2023/04/26 11:34:59;;;;;;;6.13;2.10;;;;;;;;;;4958121;28;20176;-69
2023/04/26 11:37:26;;;;;;;4.55;2.10;;;;;;;;;;4946173;28;20048;-69
2023/04/26 11:39:52;;;;;;;5.75;1.98;;;;;;;;;;4954012;28;20054;-69
2023/04/26 11:42:24;;;;;;;5.60;1.77;;;;;;;;;;4938193;28;20183;-69
2023/04/26 11:44:51;;;;;;;11.38;2.63;;;;;;;;;;4943402;28;20173;-69
2023/04/26 11:47:18;;;;;;;7.32;2.35;;;;;;;;;;4945425;28;20050;-71
2023/04/26 11:49:44;;;;;;;3.90;2.10;;;;;;;;;;4949080;28;20540;-71
2023/04/26 11:52:10;;;;;;;6.00;3.00;;;;;;;;;;4941905;28;20508;-70
2023/04/26 11:54:36;;;;;;;7.25;2.47;;;;;;;;;;4934498;28;20524;-70
2023/04/26 11:57:15;;;;;;;5.95;2.47;;;;;;;;;;4937753;28;20043;-70
2023/04/26 11:59:41;;;;;;;4.20;2.42;;;;;;;;;;4936953;28;20537;-72
2023/04/26 12:02:08;;;;;;;5.35;2.47;;;;;;;;;;4946150;28;20139;-72
2023/04/26 12:04:34;;;;;;;7.75;3.00;;;;;;;;;;4940906;28;20047;-73
2023/04/26 12:07:00;;;;;;;3.53;2.33;;;;;;;;;;4939871;28;20134;-75
2023/04/26 12:09:27;;;;;;;7.70;2.60;;;;;;;;;;4939247;28;20126;-75
2023/04/26 12:12:00;;;;;;;6.15;2.65;;;;;;;;;;4945767;28;20166;-74
2023/04/26 12:14:39;;;;;;;3.53;1.80;;;;;;;;;;4941933;28;20055;-74
2023/04/26 12:17:06;;;;;;;3.58;2.20;;;;;;;;;;4943616;28;20425;-72
2023/04/26 12:19:32;;;;;;;3.40;2.10;;;;;;;;;;4954232;28;20157;-74
2023/04/26 12:21:58;;;;;;;6.38;2.38;;;;;;;;;;4956186;28;20804;-74
2023/04/26 12:24:28;;;;;;;6.68;2.80;;;9.70;99.90;;;;;;4952466;28;20047;-73
2023/04/26 12:26:54;;;;;;;6.22;2.50;;;;;;;;;;4950997;28;20133;-74
2023/04/26 12:29:20;;;;;;;6.68;2.35;;;;;;;;;;4952763;28;20505;-74
2023/04/26 12:31:46;;;;;;;4.72;2.38;;;;;;;;;;4950278;28;20044;-73
2023/04/26 12:34:13;;;;;;;3.10;1.63;;;;;;;;;;4950859;28;20509;-73
2023/04/26 12:36:43;;;;;;;4.18;2.83;;;;;;;;;;4947006;28;20635;-75
2023/04/26 12:39:09;;;;;;;6.03;2.05;;;;;;;;;;4945543;28;20047;-72
2023/04/26 12:41:35;;;;;;;7.22;2.55;;;;;;;;;;4924354;29;20040;-73
2023/04/26 12:44:01;;;;;;;2.63;2.35;;;;;;;;;;4944760;28;20050;-72
2023/04/26 12:46:27;;;;;;;4.78;1.90;;;;;;;;;;4957759;28;20776;-73
2023/04/26 12:48:53;;;;;;;6.00;2.60;;;;;;;;;;4952720;28;20221;-72
2023/04/26 12:51:19;;;;;;;5.88;2.08;;;;;;;;;;4947851;28;20730;-72
2023/04/26 12:53:45;;;;;;;6.78;2.28;;;;;;;;;;4953375;28;20042;-73
2023/04/26 12:56:11;;;;;;;3.63;1.63;;;10.70;99.90;;;;;;4926694;29;20039;-72
2023/04/26 12:58:37;;;;;;;6.10;2.70;;;;;;;;;;4931238;28;20043;-73
2023/04/26 13:01:03;;;;;;;7.90;2.30;;;;;;;;;;4945642;28;20126;-70
2023/04/26 13:03:29;;;;;;;4.13;2.45;;;;;;;;;;4944221;28;20039;-72
2023/04/26 13:05:55;;;;;;;4.95;2.20;;;;;;;;;;4950445;28;20050;-70
2023/04/26 13:08:21;;;;;;;3.25;2.03;;;;;;;;;;4948994;28;20081;-70
2023/04/26 13:10:47;;;;;;;3.30;2.28;;;;;;;;;;4946256;28;20161;-69
2023/04/26 13:13:13;;;;;;;4.90;2.20;;;;;;;;;;4926884;29;20789;-70
2023/04/26 13:15:39;;;;;;;6.68;2.30;;;;;;;;;;4942742;28;20056;-71
2023/04/26 13:18:05;;;;;;;8.18;2.78;;;;;;;;;;4944910;28;20050;-74
2023/04/26 13:20:31;;;;;;;5.60;2.03;;;;;;;;;;4921185;29;20434;-72
2023/04/26 13:22:57;;;;;;;4.85;2.03;;;;;;;;;;4943867;28;20047;-71
2023/04/26 13:25:23;;;;;;;5.72;2.20;;;;;;;;;;4942753;29;20083;-71
2023/04/26 13:27:52;;;;;;;4.93;1.92;;;;;;;;;;4939366;28;20054;-71
2023/04/26 13:30:18;;;;;;;6.68;1.98;;;;;;;;;;4936478;28;20052;-73
2023/04/26 13:32:44;;;;;;;2.92;1.70;;;;;;;;;;4942608;28;20085;-72
2023/04/26 13:35:11;;;;;;;6.85;1.90;;;;;;;;;;4942493;28;20058;-70
2023/04/26 13:37:36;;;;;;;6.75;2.28;;;11.10;99.90;;;;;;4939980;28;20055;-70
2023/04/26 13:40:03;;;;;;;4.90;1.75;;;11.20;99.90;;;;;;4939521;28;20059;-71
2023/04/26 13:42:29;;;;;;;3.50;1.42;;;;;;;;;;4951025;28;20150;-70
2023/04/26 13:44:55;;;;;;;8.10;2.15;;;;;;;;;;4945526;28;20039;-70
2023/04/26 13:47:21;;;;;;;5.50;1.73;;;;;;;;;;4943009;28;20051;-72
2023/04/26 13:49:47;;;;;;;6.88;2.13;;;11.40;99.90;;;;;;4950144;28;20051;-70
2023/04/26 13:52:13;;;;;;;5.28;1.95;;;11.30;99.90;;;;;;4945213;28;20051;-70
2023/04/26 13:54:39;;;;;;;7.85;2.47;;;;;;;;;;4936761;28;20211;-72
2023/04/26 13:57:04;;;;;;;7.82;2.03;;;11.40;99.90;;;;;;4938002;28;20097;-71
2023/04/26 13:59:30;;;;;;;5.28;2.30;;;;;;;;;;4941857;28;20039;-71
2023/04/26 14:01:57;;;;;;;10.30;2.25;;;;;;;;;;4942517;28;20046;-70
2023/04/26 14:04:22;;;;;;;5.70;1.95;;;11.30;99.90;;;;;;4949559;28;20421;-70
2023/04/26 14:06:48;;;;;;;9.93;1.95;;;11.20;99.90;;;;;;4941445;28;20046;-70
2023/04/26 14:09:14;;;;;;;7.47;2.35;;;;;;;;;;4939324;28;20043;-71
2023/04/26 14:11:40;;;;;;;13.02;2.95;;;;;;;;;;4941670;28;20064;-70
2023/04/26 14:14:06;;;;;;;5.65;2.13;;;;;;;;;;4944990;28;20047;-70
2023/04/26 14:16:32;;;;;;;4.60;2.28;;;;;;;;;;4935067;28;20417;-70
2023/04/26 14:18:58;;;;;;;5.65;2.20;;;;;;;;;;4943894;28;20054;-71